Time;durP1;ratioP1;P1;durP2;ratioP2;P2;SDS_P1;SDS_P2;PMS_P1;PMS_P2;Temp;Humidity;BMP_temperature;BMP_pressure;BME280_temperature;BME280_humidity;BME280_pressure;Samples;Min_cycle;Max_cycle;Signal;HPM_P1;HPM_P2
2021/11/29 00:01:09;;;;;;;3.70;2.42;;;15.80;99.90;;;;;;4194661;28;21226;-75
2021/11/29 00:03:16;;;;;;;4.22;2.63;;;15.80;99.90;;;;;;4196058;28;20215;-75
2021/11/29 00:05:21;;;;;;;3.20;2.20;;;15.80;99.90;;;;;;4196215;28;20265;-75
2021/11/29 00:07:23;;;;;;;3.58;2.30;;;15.80;99.90;;;;;;4197340;28;20211;-75
2021/11/29 00:09:25;;;;;;;3.13;2.17;;;15.80;99.90;;;;;;4195896;28;20215;-75
2021/11/29 00:11:29;;;;;;;4.72;2.60;;;15.80;99.90;;;;;;4193971;28;20227;-75
2021/11/29 00:13:32;;;;;;;3.60;2.05;;;15.80;99.90;;;;;;4195617;28;20222;-75
2021/11/29 00:15:34;;;;;;;3.72;2.15;;;15.80;99.90;;;;;;4195594;28;20211;-75
2021/11/29 00:17:37;;;;;;;4.40;2.58;;;15.80;99.90;;;;;;4192126;28;20628;-75
2021/11/29 00:19:40;;;;;;;3.67;2.50;;;15.80;99.90;;;;;;4194725;28;20215;-75
2021/11/29 00:21:42;;;;;;;3.42;2.17;;;15.70;99.90;;;;;;4194223;28;20218;-75
2021/11/29 00:23:45;;;;;;;3.70;2.20;;;15.80;99.90;;;;;;4196434;28;20277;-75
2021/11/29 00:25:48;;;;;;;3.40;2.42;;;15.70;99.90;;;;;;4195415;28;20273;-75
2021/11/29 00:27:53;;;;;;;3.08;2.05;;;15.80;99.90;;;;;;4193756;28;20638;-75
2021/11/29 00:29:56;;;;;;;3.45;2.42;;;15.80;99.90;;;;;;4194074;28;20222;-75
2021/11/29 00:31:58;;;;;;;4.63;2.55;;;15.80;99.90;;;;;;4193557;28;20859;-75
2021/11/29 00:34:01;;;;;;;3.53;2.50;;;15.80;99.90;;;;;;4194010;28;20261;-75
2021/11/29 00:36:04;;;;;;;4.45;2.55;;;15.70;99.90;;;;;;4194682;28;20215;-76
2021/11/29 00:38:07;;;;;;;3.75;2.55;;;15.70;99.90;;;;;;4194285;28;20223;-75
2021/11/29 00:40:11;;;;;;;3.13;2.20;;;15.70;99.90;;;;;;4194585;28;20730;-75
2021/11/29 00:42:13;;;;;;;4.45;2.33;;;15.80;99.90;;;;;;4196892;28;20211;-75
2021/11/29 00:44:17;;;;;;;4.25;2.17;;;15.80;99.90;;;;;;4195293;28;20211;-75
2021/11/29 00:46:19;;;;;;;3.42;2.50;;;15.70;99.90;;;;;;4192842;28;20265;-75
2021/11/29 00:48:25;;;;;;;3.28;2.38;;;15.70;99.90;;;;;;4196353;28;20268;-75
2021/11/29 00:50:27;;;;;;;3.53;2.30;;;15.70;99.90;;;;;;4189921;28;20646;-76
2021/11/29 00:52:30;;;;;;;3.30;2.20;;;15.70;99.90;;;;;;4188228;28;20277;-75
2021/11/29 00:54:32;;;;;;;3.20;2.10;;;15.70;99.90;;;;;;4187810;28;20277;-76
2021/11/29 00:56:34;;;;;;;3.35;2.42;;;15.70;99.90;;;;;;4181260;28;20220;-75
2021/11/29 00:58:37;;;;;;;3.50;2.30;;;15.80;99.90;;;;;;4189604;28;20269;-75
2021/11/29 01:00:41;;;;;;;3.42;2.25;;;15.70;99.90;;;;;;4181042;28;20730;-75
2021/11/29 01:02:44;;;;;;;4.03;2.33;;;15.70;99.90;;;;;;4186944;28;20273;-75
2021/11/29 01:04:46;;;;;;;5.25;2.90;;;15.70;99.90;;;;;;4180656;28;20254;-75
2021/11/29 01:06:48;;;;;;;3.63;2.80;;;15.70;99.90;;;;;;4197778;28;20223;-75
2021/11/29 01:08:51;;;;;;;3.72;2.65;;;15.70;99.90;;;;;;4188746;28;20207;-75
2021/11/29 01:10:53;;;;;;;3.35;2.42;;;15.60;99.90;;;;;;4189560;28;20219;-75
2021/11/29 01:12:56;;;;;;;3.47;2.47;;;15.70;99.90;;;;;;4190019;28;20769;-75
2021/11/29 01:14:59;;;;;;;4.97;2.80;;;15.60;99.90;;;;;;4187377;28;20266;-75
2021/11/29 01:17:04;;;;;;;3.75;2.47;;;15.70;99.90;;;;;;4188307;28;20260;-75
2021/11/29 01:19:06;;;;;;;4.45;2.40;;;15.60;99.90;;;;;;4188816;28;20214;-75
2021/11/29 01:21:08;;;;;;;3.45;2.13;;;15.60;99.90;;;;;;4181130;28;20219;-75
2021/11/29 01:23:12;;;;;;;4.43;2.50;;;15.60;99.90;;;;;;4186287;28;20727;-75
2021/11/29 01:25:15;;;;;;;4.30;2.40;;;15.60;99.90;;;;;;4187177;28;21119;-75
2021/11/29 01:27:17;;;;;;;4.32;2.60;;;15.70;99.90;;;;;;4187147;28;20663;-75
2021/11/29 01:29:19;;;;;;;3.67;2.60;;;15.60;99.90;;;;;;4186550;28;20726;-75
2021/11/29 01:31:22;;;;;;;3.90;2.70;;;15.60;99.90;;;;;;4184357;28;20274;-75
2021/11/29 01:33:25;;;;;;;3.28;2.25;;;15.60;99.90;;;;;;4185326;28;20231;-75
2021/11/29 01:35:28;;;;;;;4.20;2.80;;;15.60;99.90;;;;;;4189312;28;20269;-75
2021/11/29 01:37:30;;;;;;;4.00;2.63;;;15.60;99.90;;;;;;4189822;28;20218;-75
2021/11/29 01:39:33;;;;;;;3.47;2.53;;;15.60;99.90;;;;;;4190334;28;20206;-75
2021/11/29 01:41:35;;;;;;;4.35;2.70;;;15.70;99.90;;;;;;4190667;28;20208;-75
2021/11/29 01:43:38;;;;;;;3.78;2.42;;;15.60;99.90;;;;;;4190561;28;20207;-75
2021/11/29 01:45:42;;;;;;;4.07;2.50;;;15.60;99.90;;;;;;4191059;28;20287;-75
2021/11/29 01:47:44;;;;;;;4.00;2.53;;;15.60;99.90;;;;;;4186690;28;20606;-75
2021/11/29 01:49:48;;;;;;;5.32;2.53;;;15.60;99.90;;;;;;4178209;28;20701;-75
2021/11/29 01:51:51;;;;;;;3.78;2.38;;;15.60;99.90;;;;;;4167693;28;20212;-75
2021/11/29 01:53:53;;;;;;;3.15;2.45;;;15.60;99.90;;;;;;4176996;28;20244;-75
2021/11/29 01:55:58;;;;;;;3.67;2.50;;;15.60;99.90;;;;;;4174689;28;20223;-75
2021/11/29 01:58:01;;;;;;;3.50;2.33;;;15.60;99.90;;;;;;4178477;28;20262;-75
2021/11/29 02:00:05;;;;;;;3.63;2.15;;;15.60;99.90;;;;;;4178542;28;20277;-75
2021/11/29 02:02:08;;;;;;;4.07;2.45;;;15.60;99.90;;;;;;4178880;28;20608;-75
2021/11/29 02:04:12;;;;;;;3.15;2.10;;;15.60;99.90;;;;;;4177648;28;20802;-75
2021/11/29 02:06:16;;;;;;;2.92;2.30;;;15.60;99.90;;;;;;4175878;28;20630;-75
2021/11/29 02:08:18;;;;;;;4.87;2.53;;;15.60;99.90;;;;;;4178233;28;20255;-75
2021/11/29 02:10:23;;;;;;;3.78;2.08;;;15.60;99.90;;;;;;4179119;28;20219;-75
2021/11/29 02:12:26;;;;;;;3.58;2.33;;;15.60;99.90;;;;;;4178181;28;20282;-75
2021/11/29 02:14:28;;;;;;;5.07;2.70;;;15.50;99.90;;;;;;4177807;28;20277;-75
2021/11/29 02:16:31;;;;;;;3.45;2.38;;;15.60;99.90;;;;;;4177929;28;20612;-75
2021/11/29 02:18:36;;;;;;;3.20;2.05;;;15.50;99.90;;;;;;4181682;28;20270;-75
2021/11/29 02:20:40;;;;;;;5.53;2.53;;;15.60;99.90;;;;;;4175373;28;20219;-75
2021/11/29 02:22:44;;;;;;;3.80;2.15;;;15.50;99.90;;;;;;4182504;28;20232;-75
2021/11/29 02:24:47;;;;;;;3.15;2.10;;;15.60;99.90;;;;;;4180732;28;20216;-75
2021/11/29 02:26:49;;;;;;;3.90;2.28;;;15.60;99.90;;;;;;4184816;28;20216;-75
2021/11/29 02:28:55;;;;;;;3.67;2.47;;;15.50;99.90;;;;;;4178275;28;21776;-75
2021/11/29 02:30:57;;;;;;;3.85;2.13;;;15.50;99.90;;;;;;4177732;28;20212;-75
2021/11/29 02:33:00;;;;;;;3.28;2.20;;;15.50;99.90;;;;;;4178412;28;20216;-75
2021/11/29 02:35:02;;;;;;;3.28;2.05;;;15.50;99.90;;;;;;4177564;28;20242;-75
2021/11/29 02:37:07;;;;;;;3.10;2.45;;;15.50;99.90;;;;;;4176875;28;20216;-75
2021/11/29 02:39:12;;;;;;;3.13;2.10;;;15.50;99.90;;;;;;4177346;28;20228;-75
2021/11/29 02:41:15;;;;;;;3.58;2.35;;;15.50;99.90;;;;;;4178427;28;20258;-75
2021/11/29 02:43:17;;;;;;;3.58;2.03;;;15.60;99.90;;;;;;4177955;28;20966;-75
2021/11/29 02:45:20;;;;;;;2.78;2.20;;;15.50;99.90;;;;;;4176935;28;20281;-75
2021/11/29 02:47:22;;;;;;;3.65;2.30;;;15.50;99.90;;;;;;4177706;28;20282;-75
2021/11/29 02:49:24;;;;;;;3.43;2.23;;;15.50;99.90;;;;;;4176776;28;20231;-75
2021/11/29 02:51:29;;;;;;;4.40;2.58;;;15.50;99.90;;;;;;4180256;28;20232;-75
2021/11/29 02:53:33;;;;;;;3.50;2.17;;;15.50;99.90;;;;;;4177959;28;20235;-75
2021/11/29 02:55:38;;;;;;;3.17;2.17;;;15.50;99.90;;;;;;4179344;28;20269;-75
2021/11/29 02:57:40;;;;;;;3.50;2.30;;;15.50;99.90;;;;;;4177149;28;20208;-75
2021/11/29 02:59:43;;;;;;;3.37;1.93;;;15.40;99.90;;;;;;4177610;28;20270;-75
2021/11/29 03:01:49;;;;;;;2.88;2.13;;;15.50;99.90;;;;;;4177258;28;20219;-75
2021/11/29 03:03:53;;;;;;;2.90;2.10;;;15.50;99.90;;;;;;4177191;28;20943;-75
2021/11/29 03:05:55;;;;;;;3.15;1.92;;;15.50;99.90;;;;;;4175375;28;20813;-75
2021/11/29 03:07:57;;;;;;;4.28;2.53;;;15.40;99.90;;;;;;4175614;28;21063;-75
2021/11/29 03:10:01;;;;;;;2.63;2.25;;;15.50;99.90;;;;;;4176379;28;20223;-76
2021/11/29 03:12:05;;;;;;;3.15;1.85;;;15.50;99.90;;;;;;4176367;28;20228;-75
2021/11/29 03:14:08;;;;;;;3.33;2.20;;;15.40;99.90;;;;;;4176811;28;20236;-75
2021/11/29 03:16:11;;;;;;;2.67;1.98;;;15.50;99.90;;;;;;4175328;28;20216;-75
2021/11/29 03:18:13;;;;;;;3.95;2.10;;;15.50;99.90;;;;;;4178406;28;20215;-75
2021/11/29 03:20:16;;;;;;;2.80;2.05;;;15.40;99.90;;;;;;4177089;28;20216;-75
2021/11/29 03:22:18;;;;;;;2.80;2.07;;;15.50;99.90;;;;;;4176123;28;20282;-75
2021/11/29 03:24:20;;;;;;;3.00;2.30;;;15.40;99.90;;;;;;4176418;28;20625;-76
2021/11/29 03:26:27;;;;;;;2.78;1.90;;;15.40;99.90;;;;;;4177078;28;20262;-75
2021/11/29 03:28:29;;;;;;;3.00;2.03;;;15.40;99.90;;;;;;4174896;28;20231;-75
2021/11/29 03:30:31;;;;;;;3.15;2.10;;;15.40;99.90;;;;;;4175979;28;20227;-75
2021/11/29 03:32:36;;;;;;;3.47;2.10;;;15.40;99.90;;;;;;4176381;28;20212;-75
2021/11/29 03:34:39;;;;;;;2.13;1.65;;;15.50;99.90;;;;;;4175455;28;20244;-75
2021/11/29 03:36:44;;;;;;;3.63;2.30;;;15.40;99.90;;;;;;4175387;28;20212;-75
2021/11/29 03:38:46;;;;;;;3.50;1.92;;;15.40;99.90;;;;;;4175620;28;20243;-75
2021/11/29 03:40:48;;;;;;;2.28;1.75;;;15.50;99.90;;;;;;4175286;28;20881;-75
2021/11/29 03:42:52;;;;;;;2.97;2.00;;;15.40;99.90;;;;;;4176648;28;20262;-75
2021/11/29 03:44:55;;;;;;;2.63;1.63;;;15.40;99.90;;;;;;4175643;28;20247;-75
2021/11/29 03:46:58;;;;;;;2.83;2.17;;;15.50;99.90;;;;;;4177704;28;20208;-75
2021/11/29 03:49:00;;;;;;;2.85;2.00;;;15.40;99.90;;;;;;4178014;28;20611;-75
2021/11/29 03:51:03;;;;;;;2.30;2.03;;;15.40;99.90;;;;;;4192224;28;20223;-75
2021/11/29 03:53:06;;;;;;;2.30;1.92;;;15.40;99.90;;;;;;4191626;28;20206;-75
2021/11/29 03:55:09;;;;;;;2.80;1.83;;;15.40;99.90;;;;;;4183812;28;20282;-75
2021/11/29 03:57:12;;;;;;;3.75;2.10;;;15.40;99.90;;;;;;4194363;28;20215;-75
2021/11/29 03:59:16;;;;;;;3.08;1.90;;;15.40;99.90;;;;;;4199190;28;20305;-75
2021/11/29 04:01:18;;;;;;;3.28;2.17;;;15.40;99.90;;;;;;4195535;28;20212;-75
2021/11/29 04:03:21;;;;;;;2.53;1.80;;;15.40;99.90;;;;;;4196115;28;20264;-75
2021/11/29 04:05:23;;;;;;;3.00;1.77;;;15.40;99.90;;;;;;4195589;28;20261;-75
2021/11/29 04:07:25;;;;;;;2.83;1.73;;;15.40;99.90;;;;;;4192982;28;20288;-75
2021/11/29 04:09:28;;;;;;;3.00;1.90;;;15.40;99.90;;;;;;4192579;28;20315;-75
2021/11/29 04:11:30;;;;;;;3.00;1.83;;;15.40;99.90;;;;;;4194268;28;20345;-75
2021/11/29 04:13:32;;;;;;;2.35;1.65;;;15.40;99.90;;;;;;4184565;28;20226;-75
2021/11/29 04:15:36;;;;;;;3.15;2.03;;;15.40;99.90;;;;;;4181716;28;20235;-75
2021/11/29 04:17:39;;;;;;;2.42;2.00;;;15.40;99.90;;;;;;4193916;28;20230;-75
2021/11/29 04:19:44;;;;;;;3.10;2.07;;;15.40;99.90;;;;;;4193452;28;20272;-75
2021/11/29 04:21:47;;;;;;;2.97;1.70;;;15.30;99.90;;;;;;4192428;28;20257;-75
2021/11/29 04:23:49;;;;;;;3.03;1.70;;;15.30;99.90;;;;;;4189668;28;20261;-75
2021/11/29 04:25:55;;;;;;;2.70;1.52;;;15.30;99.90;;;;;;4187546;28;20276;-75
2021/11/29 04:27:57;;;;;;;3.03;2.10;;;15.40;99.90;;;;;;4193628;28;20214;-75
2021/11/29 04:30:04;;;;;;;2.97;1.77;;;15.40;99.90;;;;;;4196057;28;20222;-75
2021/11/29 04:32:08;;;;;;;2.33;1.63;;;15.30;99.90;;;;;;4194841;28;20223;-75
2021/11/29 04:34:11;;;;;;;2.00;1.80;;;15.30;99.90;;;;;;4191813;28;20246;-75
2021/11/29 04:36:14;;;;;;;3.30;1.70;;;15.30;99.90;;;;;;4193261;28;20219;-75
2021/11/29 04:38:16;;;;;;;3.20;1.90;;;15.40;99.90;;;;;;4193052;28;20214;-75
2021/11/29 04:40:18;;;;;;;2.15;1.70;;;15.30;99.90;;;;;;4192893;28;20268;-75
2021/11/29 04:42:21;;;;;;;2.10;1.52;;;15.40;99.90;;;;;;4194597;28;20256;-75
2021/11/29 04:44:23;;;;;;;2.47;1.70;;;15.40;99.90;;;;;;4192689;28;20284;-75
2021/11/29 04:46:25;;;;;;;2.30;1.75;;;15.30;99.90;;;;;;4194155;28;20223;-75
2021/11/29 04:48:29;;;;;;;2.78;1.85;;;15.40;99.90;;;;;;4192932;28;20663;-75
2021/11/29 04:50:32;;;;;;;2.10;1.70;;;15.30;99.90;;;;;;4192484;28;20215;-75
2021/11/29 04:52:34;;;;;;;2.35;1.50;;;15.30;99.90;;;;;;4201002;28;20215;-75
2021/11/29 04:54:37;;;;;;;2.28;1.50;;;15.40;99.90;;;;;;4198761;28;20230;-75
2021/11/29 04:56:40;;;;;;;2.60;1.67;;;15.30;99.90;;;;;;4199932;28;20226;-75
2021/11/29 04:58:42;;;;;;;2.38;1.80;;;15.40;99.90;;;;;;4197898;28;20259;-75
2021/11/29 05:00:51;;;;;;;1.97;1.60;;;15.40;99.90;;;;;;4197638;28;20222;-75
2021/11/29 05:02:53;;;;;;;2.20;1.50;;;15.40;99.90;;;;;;4194055;28;20660;-75
2021/11/29 05:04:57;;;;;;;2.78;1.60;;;15.40;99.90;;;;;;4194540;28;21794;-75
2021/11/29 05:06:59;;;;;;;2.20;1.42;;;15.30;99.90;;;;;;4195810;28;20219;-75
2021/11/29 05:09:01;;;;;;;2.22;1.40;;;15.40;99.90;;;;;;4192898;28;20218;-76
2021/11/29 05:11:04;;;;;;;2.85;1.80;;;15.30;99.90;;;;;;4195358;28;20268;-75
2021/11/29 05:13:07;;;;;;;3.13;1.90;;;15.40;99.90;;;;;;4195800;28;20272;-75
2021/11/29 05:15:10;;;;;;;2.43;1.77;;;15.30;99.90;;;;;;4195020;28;20285;-75
2021/11/29 05:17:13;;;;;;;1.87;1.57;;;15.40;99.90;;;;;;4195204;28;20214;-75
2021/11/29 05:19:15;;;;;;;2.33;1.60;;;15.30;99.90;;;;;;4194851;28;20257;-75
2021/11/29 05:21:19;;;;;;;2.30;1.70;;;15.30;99.90;;;;;;4195716;28;20268;-75
2021/11/29 05:23:21;;;;;;;2.47;1.55;;;15.30;99.90;;;;;;4189916;28;20243;-75
2021/11/29 05:25:24;;;;;;;2.83;1.70;;;15.30;99.90;;;;;;4193943;28;20211;-75
2021/11/29 05:27:26;;;;;;;1.35;1.08;;;15.30;99.90;;;;;;4192558;28;20227;-75
2021/11/29 05:29:29;;;;;;;1.97;1.30;;;15.30;99.90;;;;;;4193738;28;20271;-75
2021/11/29 05:31:31;;;;;;;2.10;1.50;;;15.40;99.90;;;;;;4196763;28;20214;-75
2021/11/29 05:33:33;;;;;;;2.38;1.83;;;15.30;99.90;;;;;;4198839;28;20650;-75
2021/11/29 05:35:36;;;;;;;2.30;1.30;;;15.40;99.90;;;;;;4193906;28;20235;-75
2021/11/29 05:37:40;;;;;;;2.00;1.33;;;15.30;99.90;;;;;;4193983;28;20636;-75
2021/11/29 05:39:42;;;;;;;1.90;1.58;;;15.40;99.90;;;;;;4194995;28;20861;-75
2021/11/29 05:41:46;;;;;;;1.38;1.25;;;15.30;99.90;;;;;;4193463;28;20223;-75
2021/11/29 05:43:48;;;;;;;2.33;1.57;;;15.30;99.90;;;;;;4192714;28;20215;-75
2021/11/29 05:45:51;;;;;;;3.20;1.65;;;15.30;99.90;;;;;;4182933;28;20610;-75
2021/11/29 05:47:53;;;;;;;2.08;1.48;;;15.30;99.90;;;;;;4191370;28;20289;-75
2021/11/29 05:49:55;;;;;;;1.50;1.20;;;15.30;99.90;;;;;;4195874;28;20238;-75
2021/11/29 05:51:58;;;;;;;2.80;1.40;;;15.30;99.90;;;;;;4201632;28;20223;-74
2021/11/29 05:54:01;;;;;;;2.00;1.40;;;15.30;99.90;;;;;;4201480;28;20251;-75
2021/11/29 05:56:04;;;;;;;2.15;1.30;;;15.20;99.90;;;;;;4198928;28;20227;-75
2021/11/29 05:58:07;;;;;;;1.37;1.00;;;15.20;99.90;;;;;;4199407;28;20225;-75
2021/11/29 06:00:12;;;;;;;1.90;1.43;;;15.20;99.90;;;;;;4198124;28;20253;-75
2021/11/29 06:02:14;;;;;;;1.87;1.30;;;15.10;99.90;;;;;;4198346;28;20219;-75
2021/11/29 06:04:17;;;;;;;1.60;1.33;;;15.10;99.90;;;;;;4200059;28;20264;-75
2021/11/29 06:06:20;;;;;;;1.73;1.20;;;15.10;99.90;;;;;;4199070;28;20621;-75
2021/11/29 06:08:22;;;;;;;2.00;1.33;;;15.30;99.90;;;;;;4198068;28;20231;-75
2021/11/29 06:10:26;;;;;;;1.88;1.27;;;15.40;99.90;;;;;;4197871;28;20252;-75
2021/11/29 06:12:29;;;;;;;2.03;1.45;;;15.40;99.90;;;;;;4195057;28;20219;-75
2021/11/29 06:14:31;;;;;;;2.22;1.38;;;15.40;99.90;;;;;;4188029;28;20272;-75
2021/11/29 06:16:34;;;;;;;2.50;1.48;;;15.40;99.90;;;;;;4193815;28;20296;-75
2021/11/29 06:18:37;;;;;;;1.50;1.25;;;15.50;99.90;;;;;;4194019;28;20268;-75
2021/11/29 06:20:39;;;;;;;1.35;1.00;;;15.50;99.90;;;;;;4194833;28;20680;-75
2021/11/29 06:22:42;;;;;;;1.37;0.97;;;15.50;99.90;;;;;;4194418;28;20211;-75
2021/11/29 06:24:44;;;;;;;2.28;1.20;;;15.50;99.90;;;;;;4194331;28;20238;-75
2021/11/29 06:26:48;;;;;;;2.42;1.42;;;15.50;99.90;;;;;;4194754;28;20211;-75
2021/11/29 06:28:50;;;;;;;1.20;0.93;;;15.50;99.90;;;;;;4194315;28;20621;-75
2021/11/29 06:30:53;;;;;;;1.92;1.27;;;15.60;99.90;;;;;;4193773;28;20223;-75
2021/11/29 06:32:55;;;;;;;1.50;1.00;;;15.60;99.90;;;;;;4194751;28;20699;-75
2021/11/29 06:34:57;;;;;;;1.63;1.08;;;15.60;99.90;;;;;;4192437;28;20223;-75
2021/11/29 06:37:01;;;;;;;1.48;1.00;;;15.60;99.90;;;;;;4194006;28;20276;-75
2021/11/29 06:39:05;;;;;;;2.20;1.00;;;15.60;99.90;;;;;;4193847;28;20215;-75
2021/11/29 06:41:07;;;;;;;1.52;1.20;;;15.60;99.90;;;;;;4194027;28;20667;-75
2021/11/29 06:43:11;;;;;;;1.90;1.30;;;15.60;99.90;;;;;;4194137;28;20211;-75
2021/11/29 06:45:13;;;;;;;1.40;1.00;;;15.60;99.90;;;;;;4194056;28;20324;-75
2021/11/29 06:47:15;;;;;;;1.83;1.27;;;15.70;99.90;;;;;;4194160;28;20219;-75
2021/11/29 06:49:18;;;;;;;1.27;0.85;;;15.70;99.90;;;;;;4185847;28;20788;-75
2021/11/29 06:51:23;;;;;;;1.40;1.00;;;15.70;99.90;;;;;;4193169;28;20658;-76
2021/11/29 06:53:26;;;;;;;1.23;0.97;;;15.70;99.90;;;;;;4192453;28;20272;-75
2021/11/29 06:55:29;;;;;;;1.17;0.90;;;15.70;99.90;;;;;;4192519;28;20285;-75
2021/11/29 06:57:31;;;;;;;2.67;1.13;;;15.70;99.90;;;;;;4192425;28;20610;-75
2021/11/29 06:59:36;;;;;;;2.38;1.35;;;15.70;99.90;;;;;;4192904;28;20219;-75
2021/11/29 07:01:38;;;;;;;2.17;1.35;;;15.70;99.90;;;;;;4192819;28;20215;-75
2021/11/29 07:03:42;;;;;;;2.05;1.10;;;15.70;99.90;;;;;;4193175;28;20215;-75
2021/11/29 07:05:44;;;;;;;1.20;1.00;;;15.80;99.90;;;;;;4192622;28;20237;-75
2021/11/29 07:07:49;;;;;;;1.65;1.23;;;15.80;99.90;;;;;;4192068;28;20277;-75
2021/11/29 07:09:52;;;;;;;1.27;0.90;;;15.80;99.90;;;;;;4191141;28;20269;-75
2021/11/29 07:11:54;;;;;;;1.40;1.13;;;15.80;99.90;;;;;;4192135;28;20215;-75
2021/11/29 07:13:57;;;;;;;1.65;1.10;;;15.80;99.90;;;;;;4193726;28;20632;-75
2021/11/29 07:16:00;;;;;;;2.42;1.13;;;15.90;99.90;;;;;;4192957;28;20231;-75
2021/11/29 07:18:03;;;;;;;1.83;1.17;;;15.80;99.90;;;;;;4193666;28;20215;-75
2021/11/29 07:20:06;;;;;;;1.42;1.10;;;15.80;99.90;;;;;;4193947;28;20223;-75
2021/11/29 07:22:08;;;;;;;1.75;1.00;;;15.90;99.90;;;;;;4193200;28;20262;-75
2021/11/29 07:24:11;;;;;;;1.48;0.82;;;15.90;99.90;;;;;;4192687;28;20215;-75
2021/11/29 07:26:15;;;;;;;1.27;0.93;;;15.90;99.90;;;;;;4192270;28;20599;-75
2021/11/29 07:28:17;;;;;;;1.77;1.00;;;15.90;99.90;;;;;;4193243;28;20223;-75
2021/11/29 07:30:22;;;;;;;2.13;1.10;;;15.90;99.90;;;;;;4192892;28;20652;-75
2021/11/29 07:32:28;;;;;;;1.98;1.17;;;15.90;99.90;;;;;;4193711;28;20971;-75
2021/11/29 07:34:31;;;;;;;1.85;1.30;;;15.90;99.90;;;;;;4192912;28;20617;-75
2021/11/29 07:36:33;;;;;;;1.60;1.17;;;15.90;99.90;;;;;;4193380;28;20296;-75
2021/11/29 07:38:35;;;;;;;2.30;0.83;;;15.90;99.90;;;;;;4197469;28;20622;-75
2021/11/29 07:40:38;;;;;;;2.90;0.90;;;15.90;99.90;;;;;;4196092;28;20265;-75
2021/11/29 07:42:40;;;;;;;1.67;1.10;;;16.00;99.90;;;;;;4191291;28;20269;-75
2021/11/29 07:44:43;;;;;;;1.75;0.90;;;16.00;99.90;;;;;;4193028;28;20245;-75
2021/11/29 07:46:47;;;;;;;1.20;1.07;;;16.00;99.90;;;;;;4193196;28;20261;-75
2021/11/29 07:48:50;;;;;;;1.95;0.80;;;16.00;99.90;;;;;;4198750;28;20203;-75
2021/11/29 07:50:54;;;;;;;0.95;0.88;;;16.00;99.90;;;;;;4192721;28;20215;-75
2021/11/29 07:52:56;;;;;;;1.48;1.10;;;16.00;99.90;;;;;;4189986;28;20535;-75
2021/11/29 07:54:59;;;;;;;1.55;1.10;;;16.00;99.90;;;;;;4189621;28;20262;-75
2021/11/29 07:57:01;;;;;;;9.23;1.30;;;16.00;99.90;;;;;;4150880;28;20233;-75
2021/11/29 07:59:03;;;;;;;6.03;1.30;;;15.70;99.90;;;;;;4181789;28;20261;-75
2021/11/29 08:01:06;;;;;;;5.20;1.10;;;15.80;99.90;;;;;;4188822;28;20212;-75
2021/11/29 08:03:08;;;;;;;2.35;1.08;;;15.80;99.90;;;;;;4199399;28;20191;-76
2021/11/29 08:05:12;;;;;;;1.98;1.10;;;15.90;99.90;;;;;;4205977;28;20256;-76
2021/11/29 08:07:16;;;;;;;3.40;1.10;;;16.00;99.90;;;;;;4196045;28;20246;-75
2021/11/29 08:09:18;;;;;;;1.48;1.10;;;16.30;99.90;;;;;;4208375;28;20269;-74
2021/11/29 08:11:21;;;;;;;1.60;0.90;;;16.50;99.90;;;;;;4199176;28;20223;-74
2021/11/29 08:13:23;;;;;;;2.55;1.00;;;16.60;99.90;;;;;;4190484;28;20211;-74
2021/11/29 08:15:26;;;;;;;2.00;0.82;;;16.60;99.90;;;;;;4179403;28;20216;-74
2021/11/29 08:17:28;;;;;;;1.73;0.90;;;16.80;99.90;;;;;;4187401;28;20235;-75
2021/11/29 08:19:30;;;;;;;1.83;0.98;;;16.90;99.90;;;;;;4196359;28;20211;-72
2021/11/29 08:21:34;;;;;;;1.90;1.00;;;17.00;99.90;;;;;;4197514;28;20220;-72
2021/11/29 08:23:37;;;;;;;1.88;1.00;;;17.00;99.90;;;;;;4192340;28;20218;-73
2021/11/29 08:25:41;;;;;;;2.33;1.00;;;17.10;99.90;;;;;;4200788;28;20210;-74
2021/11/29 08:27:44;;;;;;;2.83;1.15;;;17.20;99.90;;;;;;4194421;28;20207;-73
2021/11/29 08:29:46;;;;;;;1.13;1.00;;;17.20;99.90;;;;;;4197063;28;20206;-70
2021/11/29 08:31:48;;;;;;;2.72;1.40;;;17.30;99.90;;;;;;4194437;28;20215;-73
2021/11/29 08:33:51;;;;;;;2.63;1.08;;;17.40;99.90;;;;;;4184451;28;20218;-72
2021/11/29 08:35:53;;;;;;;4.57;1.20;;;17.50;99.90;;;;;;4202072;28;20340;-72
2021/11/29 08:37:58;;;;;;;3.88;1.20;;;17.50;99.90;;;;;;4206677;28;20239;-71
2021/11/29 08:40:00;;;;;;;2.60;1.05;;;17.50;99.90;;;;;;4195133;28;20207;-71
2021/11/29 08:42:04;;;;;;;11.60;1.40;;;17.60;99.90;;;;;;4191934;28;20276;-73
2021/11/29 08:44:06;;;;;;;1.98;1.02;;;17.60;99.90;;;;;;4189814;28;20315;-73
2021/11/29 08:46:10;;;;;;;2.30;1.25;;;17.60;99.90;;;;;;4193424;28;20222;-74
2021/11/29 08:48:13;;;;;;;3.67;1.33;;;17.50;99.90;;;;;;4187809;28;20279;-74
2021/11/29 08:50:15;;;;;;;8.38;1.50;;;17.50;99.90;;;;;;4175407;28;20239;-74
2021/11/29 08:52:17;;;;;;;5.75;1.45;;;17.60;99.90;;;;;;4168986;28;20224;-74
2021/11/29 08:54:21;;;;;;;2.25;1.27;;;17.70;99.90;;;;;;4170772;28;20216;-72
2021/11/29 08:56:24;;;;;;;24.90;2.08;;;17.60;99.90;;;;;;4169568;28;20261;-74
2021/11/29 08:58:26;;;;;;;9.32;1.90;;;17.70;99.90;;;;;;4173263;28;20235;-74
2021/11/29 09:00:30;;;;;;;4.05;2.53;;;17.60;99.90;;;;;;4170909;28;20255;-73
2021/11/29 09:02:32;;;;;;;5.18;2.28;;;17.30;99.90;;;;;;4174683;28;20211;-74
2021/11/29 09:04:35;;;;;;;3.67;1.65;;;17.20;99.90;;;;;;4173696;28;20216;-74
2021/11/29 09:06:38;;;;;;;4.22;1.70;;;17.40;99.90;;;;;;4169737;28;20266;-76
2021/11/29 09:08:40;;;;;;;7.07;1.40;;;17.40;99.90;;;;;;4171593;28;20220;-73
2021/11/29 09:10:46;;;;;;;4.07;1.60;;;17.60;99.90;;;;;;4173727;28;20215;-74
2021/11/29 09:12:48;;;;;;;4.53;1.40;;;17.70;99.90;;;;;;4172257;28;20269;-75
2021/11/29 09:14:51;;;;;;;4.85;1.55;;;17.70;99.90;;;;;;4173963;28;20273;-73
2021/11/29 09:16:53;;;;;;;9.70;1.77;;;17.80;99.90;;;;;;4169167;28;21978;-73
2021/11/29 09:18:56;;;;;;;5.75;1.83;;;17.90;99.90;;;;;;4173868;28;20873;-75
2021/11/29 09:20:59;;;;;;;3.28;1.40;;;17.90;99.90;;;;;;4173028;28;20249;-76
2021/11/29 09:23:03;;;;;;;6.13;1.48;;;17.90;99.90;;;;;;4172545;28;20281;-76
2021/11/29 09:25:06;;;;;;;6.88;1.83;;;18.00;99.90;;;;;;4174016;28;21533;-77
2021/11/29 09:27:10;;;;;;;2.85;1.15;;;18.10;99.90;;;;;;4165294;28;20216;-76
2021/11/29 09:29:13;;;;;;;4.20;1.63;;;18.10;99.90;;;;;;4161579;28;20221;-81
2021/11/29 09:31:15;;;;;;;4.90;1.65;;;18.20;99.90;;;;;;4170134;28;20219;-80
2021/11/29 09:33:17;;;;;;;2.33;1.38;;;18.20;99.90;;;;;;4167526;28;20242;-79
2021/11/29 09:35:20;;;;;;;5.47;1.55;;;18.10;99.90;;;;;;4171344;28;20298;-74
2021/11/29 09:37:22;;;;;;;6.55;1.70;;;18.20;99.90;;;;;;4172628;28;20302;-77
2021/11/29 09:39:25;;;;;;;5.28;1.52;;;18.20;99.90;;;;;;4172971;28;20756;-77
2021/11/29 09:41:28;;;;;;;7.47;1.70;;;18.30;99.90;;;;;;4174803;28;20262;-79
2021/11/29 09:43:32;;;;;;;11.85;2.25;;;18.20;99.90;;;;;;4169466;28;21515;-73
2021/11/29 09:45:34;;;;;;;12.85;2.20;;;18.20;99.90;;;;;;4168738;28;20224;-77
2021/11/29 09:47:36;;;;;;;48.05;3.92;;;18.30;99.90;;;;;;4174721;28;20262;-74
2021/11/29 09:49:39;;;;;;;47.72;4.53;;;18.30;99.90;;;;;;4163360;28;20228;-74
2021/11/29 09:51:41;;;;;;;22.35;2.58;;;18.40;99.90;;;;;;4143525;28;20294;-78
2021/11/29 09:53:44;;;;;;;14.68;2.40;;;18.40;99.90;;;;;;4167877;28;20274;-75
2021/11/29 09:55:49;;;;;;;16.08;2.90;;;18.40;99.90;;;;;;4178786;28;20238;-75
2021/11/29 09:57:52;;;;;;;7.55;2.35;;;18.50;99.90;;;;;;4169291;28;20297;-76
2021/11/29 09:59:56;;;;;;;12.82;2.20;;;18.70;99.90;;;;;;4153178;28;20296;-77
2021/11/29 10:01:59;;;;;;;14.43;2.25;;;18.90;99.90;;;;;;4184728;28;20220;-78
2021/11/29 10:04:02;;;;;;;23.77;2.63;;;18.90;99.90;;;;;;4170903;28;20224;-76
2021/11/29 10:06:06;;;;;;;10.88;2.28;;;18.80;99.90;;;;;;4174791;28;20258;-79
2021/11/29 10:08:19;;;;;;;10.77;1.73;;;18.90;99.90;;;;;;4176822;28;20261;-75
2021/11/29 10:10:24;;;;;;;11.13;2.40;;;19.00;99.90;;;;;;4172617;28;20223;-75
2021/11/29 10:12:28;;;;;;;13.35;2.30;;;19.10;99.90;;;;;;4166673;28;20250;-78
2021/11/29 10:14:31;;;;;;;9.73;2.50;;;19.10;99.90;;;;;;4169438;28;20216;-77
2021/11/29 10:16:38;;;;;;;11.77;2.38;;;19.10;99.90;;;;;;4166451;28;20216;-83
2021/11/29 10:18:41;;;;;;;9.70;2.08;;;19.10;99.90;;;;;;4178597;28;20240;-79
2021/11/29 10:20:51;;;;;;;6.80;1.67;;;19.20;99.90;;;;;;4175351;28;20630;-75
2021/11/29 10:23:02;;;;;;;10.13;2.05;;;19.20;99.90;;;;;;4168412;28;20298;-77
2021/11/29 10:25:16;;;;;;;9.45;1.90;;;19.30;99.90;;;;;;4166893;28;20216;-77
2021/11/29 10:27:19;;;;;;;7.40;1.95;;;19.30;99.90;;;;;;4167351;28;20619;-79
2021/11/29 10:29:26;;;;;;;7.97;2.10;;;19.30;99.90;;;;;;4171007;28;20224;-77
2021/11/29 10:31:33;;;;;;;9.38;2.00;;;19.30;99.90;;;;;;4165620;28;20864;-79
2021/11/29 10:33:51;;;;;;;6.82;1.60;;;19.30;99.90;;;;;;4172377;28;20668;-79
2021/11/29 10:35:53;;;;;;;6.05;1.83;;;19.30;99.90;;;;;;4159334;28;20215;-74
2021/11/29 10:37:57;;;;;;;7.60;1.90;;;19.30;99.90;;;;;;4164291;28;20240;-74
2021/11/29 10:40:00;;;;;;;6.18;1.90;;;19.20;99.90;;;;;;4176997;28;21922;-73